Terminal Aerodrome Forecast
Issued by NWS

Home | Current Version | Previous Version | Graphics & Text | Print | Product List | Glossary On
Versions: 1 2 3 4 5 6 7 8 9 10 11 12 13 14 15 16 17 18 19 20
000
FTUS43 KGRB 030500
TAFAUW
TAF
KAUW 030520Z 0306/0406 16007KT P6SM SCT070 OVC100
     FM030700 15007KT P6SM -SN SCT040 OVC090
      TEMPO 0307/0311 3SM -SN SCT015 BKN035
     FM031200 14011KT 1/2SM SN VV006
     FM031700 19005KT 2SM -SN BR BKN004 OVC008
     FM031900 23009KT 6SM -SN BKN009 OVC020
     FM032100 27011G20KT P6SM -SN SCT009 OVC025
     FM040000 29012G22KT P6SM SCT020 BKN040=

USA.gov is the U.S. government's official web portal to all federal, state and local government web resources and services.